Experiment, Georgia
Current Conditions -  °F | °C
As of 3:53 AM on Wednesday 26 Nov 2014 (Local Time) from KFFC Reporting Station
Broken Clouds Broken Clouds  
Wind Chill: 46°   Ceiling: 11000
Heat Index: 46°   Visibility: 10mi
Dew Point: 38°   Wind: 3mph
Humidity: 73%   Direction: 260°W
Pressure: 30.02"   Gusts: NA
Location:  33.28°N, 84.28°W
Report Text: KFFC 260853Z AUTO 26003KT 10SM BKN110 08/03 A3002 RMK AO2 SLP166 60001 T00780033 55002
Loading
Personal Weather Stations






























Interactive Weather Map New forecast layout! Learn more

10-Day Weather Forecast

Advertisements
Track Severe Weather on mobile